Time,TemperatureF,DewpointF,PressureIn,WindDirection,WindDirectionDegrees,WindSpeedMPH,WindSpeedGustMPH,Humidity,HourlyPrecipIn,Conditions,Clouds,dailyrainin,SoftwareType,DateUTC
2013-06-04 00:14:00,50.3,46.0,29.80,ESE,116,0.0,0.0,85,0.00,,,0.00,weatherlink.com 1.10,2013-06-04 04:14:00,
2013-06-04 00:29:00,50.1,46.0,29.80,ESE,116,0.0,0.0,85,0.00,,,0.00,weatherlink.com 1.10,2013-06-04 04:29:00,
2013-06-04 00:44:00,50.1,46.0,29.81,SSW,213,0.0,1.0,85,0.00,,,0.00,weatherlink.com 1.10,2013-06-04 04:44:00,
2013-06-04 00:59:00,50.3,46.0,29.81,SSW,213,0.0,0.0,84,0.00,,,0.00,weatherlink.com 1.10,2013-06-04 04:59:00,
2013-06-04 01:14:00,50.3,45.0,29.81,SW,225,0.0,0.0,83,0.00,,,0.00,weatherlink.com 1.10,2013-06-04 05:14:00,
2013-06-04 01:29:00,50.0,45.0,29.81,SW,225,0.0,1.0,84,0.00,,,0.00,weatherlink.com 1.10,2013-06-04 05:29:00,
2013-06-04 01:44:00,48.7,44.0,29.81,SW,225,0.0,0.0,85,0.00,,,0.00,weatherlink.com 1.10,2013-06-04 05:44:00,
2013-06-04 01:59:00,47.7,44.0,29.82,SW,225,0.0,1.0,87,0.00,,,0.00,weatherlink.com 1.10,2013-06-04 05:59:00,
2013-06-04 02:14:00,47.3,44.0,29.81,WSW,240,0.0,1.0,88,0.00,,,0.00,weatherlink.com 1.10,2013-06-04 06:14:00,
2013-06-04 02:29:00,47.0,43.0,29.81,NE,54,0.0,1.0,86,0.00,,,0.00,weatherlink.com 1.10,2013-06-04 06:29:00,
2013-06-04 02:44:00,46.5,43.0,29.82,NE,53,0.0,1.0,86,0.00,,,0.00,weatherlink.com 1.10,2013-06-04 06:44:00,
2013-06-04 02:59:00,45.4,42.0,29.81,NE,55,0.0,2.0,88,0.00,,,0.00,weatherlink.com 1.10,2013-06-04 06:59:00,
2013-06-04 03:14:00,45.3,42.0,29.81,NE,53,1.0,1.0,88,0.00,,,0.00,weatherlink.com 1.10,2013-06-04 07:14:00,
2013-06-04 03:29:00,45.3,42.0,29.81,NE,55,0.0,1.0,88,0.00,,,0.00,weatherlink.com 1.10,2013-06-04 07:29:00,
2013-06-04 03:44:00,45.0,41.0,29.81,NE,55,0.0,1.0,87,0.00,,,0.00,weatherlink.com 1.10,2013-06-04 07:44:00,
2013-06-04 03:59:00,44.7,41.0,29.81,NE,55,0.0,1.0,88,0.00,,,0.00,weatherlink.com 1.10,2013-06-04 07:59:00,
2013-06-04 04:14:00,44.1,41.0,29.81,NE,55,1.0,1.0,89,0.00,,,0.00,weatherlink.com 1.10,2013-06-04 08:14:00,
2013-06-04 04:29:00,43.4,41.0,29.81,NE,54,0.0,1.0,90,0.00,,,0.00,weatherlink.com 1.10,2013-06-04 08:29:00,
2013-06-04 04:44:00,43.0,41.0,29.81,NE,54,1.0,1.0,91,0.00,,,0.00,weatherlink.com 1.10,2013-06-04 08:44:00,
2013-06-04 04:59:00,43.1,40.0,29.82,NE,53,0.0,1.0,90,0.00,,,0.00,weatherlink.com 1.10,2013-06-04 08:59:00,
2013-06-04 05:14:00,43.2,41.0,29.83,NE,53,0.0,1.0,91,0.00,,,0.00,weatherlink.com 1.10,2013-06-04 09:14:00,
2013-06-04 05:29:00,43.6,41.0,29.83,NE,54,0.0,1.0,91,0.00,,,0.00,weatherlink.com 1.10,2013-06-04 09:29:00,
2013-06-04 05:44:00,44.0,41.0,29.83,NE,54,0.0,0.0,88,0.00,,,0.00,weatherlink.com 1.10,2013-06-04 09:44:00,
2013-06-04 05:59:00,44.0,41.0,29.84,NE,54,0.0,0.0,88,0.00,,,0.00,weatherlink.com 1.10,2013-06-04 09:59:00,
2013-06-04 06:14:00,44.8,42.0,29.84,NE,54,0.0,0.0,88,0.00,,,0.00,weatherlink.com 1.10,2013-06-04 10:14:00,
2013-06-04 06:29:00,45.9,42.0,29.85,NE,53,0.0,0.0,87,0.00,,,0.00,weatherlink.com 1.10,2013-06-04 10:29:00,
2013-06-04 06:44:00,46.2,42.0,29.84,South,191,0.0,0.0,86,0.00,,,0.00,weatherlink.com 1.10,2013-06-04 10:44:00,
2013-06-04 06:59:00,47.1,43.0,29.84,South,191,0.0,1.0,85,0.00,,,0.00,weatherlink.com 1.10,2013-06-04 10:59:00,
2013-06-04 07:14:00,46.9,43.0,29.85,ESE,116,0.0,1.0,85,0.00,,,0.00,weatherlink.com 1.10,2013-06-04 11:14:00,
2013-06-04 07:29:00,46.7,43.0,29.85,South,173,0.0,1.0,87,0.00,,,0.00,weatherlink.com 1.10,2013-06-04 11:29:00,
2013-06-04 07:44:00,46.9,43.0,29.85,South,186,0.0,1.0,86,0.00,,,0.00,weatherlink.com 1.10,2013-06-04 11:44:00,
2013-06-04 07:59:00,47.6,44.0,29.86,SSE,150,0.0,1.0,86,0.00,,,0.00,weatherlink.com 1.10,2013-06-04 11:59:00,
2013-06-04 08:14:00,48.3,44.0,29.85,SSE,155,1.0,2.0,84,0.00,,,0.00,weatherlink.com 1.10,2013-06-04 12:14:00,
2013-06-04 08:29:00,48.3,42.0,29.86,SW,233,1.0,4.0,78,0.00,,,0.00,weatherlink.com 1.10,2013-06-04 12:29:00,
2013-06-04 08:44:00,48.5,42.0,29.87,WSW,246,0.0,3.0,77,0.00,,,0.00,weatherlink.com 1.10,2013-06-04 12:44:00,
2013-06-04 08:59:00,48.4,42.0,29.87,SSW,202,0.0,2.0,78,0.00,,,0.00,weatherlink.com 1.10,2013-06-04 12:59:00,
2013-06-04 09:15:00,48.3,41.0,29.87,WNW,286,0.0,5.0,76,0.00,,,0.00,weatherlink.com 1.10,2013-06-04 13:15:00,
2013-06-04 09:30:00,47.9,41.0,29.89,WSW,238,0.0,3.0,77,0.00,,,0.00,weatherlink.com 1.10,2013-06-04 13:30:00,
2013-06-04 09:45:00,47.5,43.0,29.89,SSW,206,0.0,4.0,83,0.00,,,0.00,weatherlink.com 1.10,2013-06-04 13:45:00,
2013-06-04 10:00:00,47.7,42.0,29.89,SW,236,0.0,4.0,80,0.00,,,0.00,weatherlink.com 1.10,2013-06-04 14:00:00,
2013-06-04 10:15:00,48.2,42.0,29.89,SSE,147,0.0,3.0,78,0.00,,,0.00,weatherlink.com 1.10,2013-06-04 14:15:00,
2013-06-04 10:31:00,48.7,42.0,29.90,NW,313,0.0,6.0,78,0.00,,,0.00,weatherlink.com 1.10,2013-06-04 14:31:00,
2013-06-04 10:45:00,50.1,42.0,29.90,WSW,248,0.0,1.0,75,0.00,,,0.00,weatherlink.com 1.10,2013-06-04 14:45:00,
2013-06-04 11:00:00,49.8,43.0,29.91,WSW,245,0.0,2.0,77,0.00,,,0.00,weatherlink.com 1.10,2013-06-04 15:00:00,
2013-06-04 11:15:00,49.7,43.0,29.92,SW,236,0.0,3.0,78,0.00,,,0.00,weatherlink.com 1.10,2013-06-04 15:15:00,
2013-06-04 11:30:00,49.8,43.0,29.92,SW,225,0.0,2.0,76,0.00,,,0.00,weatherlink.com 1.10,2013-06-04 15:30:00,
2013-06-04 11:45:00,49.3,42.0,29.93,SW,225,0.0,0.0,77,0.00,,,0.00,weatherlink.com 1.10,2013-06-04 15:45:00,
2013-06-04 12:00:00,49.2,42.0,29.94,South,176,0.0,1.0,77,0.00,,,0.00,weatherlink.com 1.10,2013-06-04 16:00:00,
2013-06-04 12:15:00,49.2,43.0,29.94,South,182,0.0,3.0,78,0.00,,,0.00,weatherlink.com 1.10,2013-06-04 16:15:00,
2013-06-04 12:30:00,50.0,43.0,29.95,ESE,109,0.0,5.0,77,0.00,,,0.00,weatherlink.com 1.10,2013-06-04 16:30:00,
2013-06-04 12:45:00,50.4,43.0,29.96,West,259,0.0,4.0,77,0.00,,,0.00,weatherlink.com 1.10,2013-06-04 16:45:00,
2013-06-04 13:00:00,50.0,44.0,29.96,WSW,254,0.0,0.0,80,0.00,,,0.00,weatherlink.com 1.10,2013-06-04 17:00:00,
2013-06-04 13:15:00,50.2,44.0,29.96,SW,226,0.0,2.0,79,0.00,,,0.00,weatherlink.com 1.10,2013-06-04 17:15:00,
2013-06-04 13:30:00,50.8,43.0,29.96,South,187,0.0,4.0,75,0.00,,,0.00,weatherlink.com 1.10,2013-06-04 17:30:00,
2013-06-04 13:45:00,51.4,43.0,29.97,East,98,0.0,4.0,73,0.00,,,0.00,weatherlink.com 1.10,2013-06-04 17:45:00,
2013-06-04 14:00:00,52.2,43.0,29.97,SSE,148,0.0,3.0,71,0.00,,,0.00,weatherlink.com 1.10,2013-06-04 18:00:00,
2013-06-04 14:15:00,53.5,43.0,29.96,West,281,0.0,6.0,67,0.00,,,0.00,weatherlink.com 1.10,2013-06-04 18:15:00,
2013-06-04 14:30:00,53.8,43.0,29.96,South,191,0.0,3.0,66,0.00,,,0.00,weatherlink.com 1.10,2013-06-04 18:30:00,
2013-06-04 14:45:00,53.9,44.0,29.96,NNW,340,0.0,2.0,69,0.00,,,0.00,weatherlink.com 1.10,2013-06-04 18:45:00,
2013-06-04 15:00:00,54.6,45.0,29.96,NW,322,1.0,3.0,69,0.00,,,0.00,weatherlink.com 1.10,2013-06-04 19:00:00,
2013-06-04 15:15:00,54.4,45.0,29.95,SSW,209,2.0,2.0,70,0.00,,,0.00,weatherlink.com 1.10,2013-06-04 19:15:00,
2013-06-04 15:30:00,54.9,43.0,29.95,NE,34,1.0,6.0,64,0.00,,,0.00,weatherlink.com 1.10,2013-06-04 19:30:00,
2013-06-04 15:45:00,54.2,43.0,29.95,WNW,289,0.0,2.0,67,0.00,,,0.00,weatherlink.com 1.10,2013-06-04 19:45:00,
2013-06-04 16:00:00,54.6,43.0,29.96,SW,233,0.0,3.0,65,0.00,,,0.00,weatherlink.com 1.10,2013-06-04 20:00:00,
2013-06-04 16:15:00,55.4,44.0,29.95,WNW,286,1.0,3.0,65,0.00,,,0.00,weatherlink.com 1.10,2013-06-04 20:15:00,
2013-06-04 16:30:00,56.9,43.0,29.95,SE,141,0.0,6.0,60,0.00,,,0.00,weatherlink.com 1.10,2013-06-04 20:30:00,
2013-06-04 16:45:00,57.3,44.0,29.97,NNE,24,0.0,4.0,61,0.00,,,0.00,weatherlink.com 1.10,2013-06-04 20:45:00,
2013-06-04 17:00:00,57.0,43.0,29.97,ENE,66,4.0,4.0,60,0.00,,,0.00,weatherlink.com 1.10,2013-06-04 21:00:00,
2013-06-04 17:15:00,56.6,43.0,29.98,WSW,246,2.0,4.0,61,0.00,,,0.00,weatherlink.com 1.10,2013-06-04 21:15:00,
2013-06-04 17:31:00,56.8,44.0,29.98,South,169,0.0,5.0,63,0.00,,,0.00,weatherlink.com 1.10,2013-06-04 21:31:00,
2013-06-04 17:46:00,56.5,45.0,29.99,NW,310,2.0,3.0,66,0.00,,,0.00,weatherlink.com 1.10,2013-06-04 21:46:00,
2013-06-04 18:01:00,55.8,44.0,29.99,SW,236,1.0,2.0,65,0.00,,,0.00,weatherlink.com 1.10,2013-06-04 22:01:00,
2013-06-04 18:16:00,54.7,45.0,29.99,WSW,238,0.0,3.0,69,0.00,,,0.00,weatherlink.com 1.10,2013-06-04 22:16:00,
2013-06-04 18:31:00,54.6,45.0,30.00,SE,136,3.0,3.0,70,0.00,,,0.00,weatherlink.com 1.10,2013-06-04 22:31:00,
2013-06-04 18:46:00,54.7,44.0,30.01,NW,310,2.0,2.0,68,0.00,,,0.00,weatherlink.com 1.10,2013-06-04 22:46:00,
2013-06-04 19:01:00,54.1,45.0,30.03,WSW,254,0.0,1.0,70,0.00,,,0.00,weatherlink.com 1.10,2013-06-04 23:01:00,
2013-06-04 19:16:00,53.9,45.0,30.03,NNW,327,0.0,4.0,71,0.00,,,0.00,weatherlink.com 1.10,2013-06-04 23:16:00,
2013-06-04 19:46:00,53.0,45.0,30.05,West,279,1.0,5.0,74,0.00,,,0.00,weatherlink.com 1.10,2013-06-04 23:46:00,
2013-06-04 20:16:00,51.8,44.0,30.05,NE,40,0.0,0.0,76,0.00,,,0.00,weatherlink.com 1.10,2013-06-05 00:16:00,
2013-06-04 20:31:00,50.7,44.0,30.05,West,260,0.0,1.0,78,0.00,,,0.00,weatherlink.com 1.10,2013-06-05 00:31:00,
2013-06-04 21:01:00,48.5,43.0,30.07,West,259,0.0,0.0,82,0.00,,,0.00,weatherlink.com 1.10,2013-06-05 01:01:00,
2013-06-04 21:16:00,47.6,43.0,30.07,NE,46,0.0,0.0,85,0.00,,,0.00,weatherlink.com 1.10,2013-06-05 01:16:00,
2013-06-04 21:31:00,46.8,43.0,30.07,NE,46,0.0,0.0,86,0.00,,,0.00,weatherlink.com 1.10,2013-06-05 01:31:00,
2013-06-04 22:01:00,47.1,44.0,30.08,NE,46,0.0,0.0,87,0.00,,,0.00,weatherlink.com 1.10,2013-06-05 02:01:00,
2013-06-04 22:31:00,47.3,43.0,30.09,NE,46,0.0,0.0,86,0.00,,,0.00,weatherlink.com 1.10,2013-06-05 02:31:00,
2013-06-04 22:46:00,47.4,44.0,30.09,NE,46,0.0,0.0,88,0.00,,,0.00,weatherlink.com 1.10,2013-06-05 02:46:00,
2013-06-04 23:01:00,47.5,44.0,30.09,NE,46,0.0,0.0,88,0.00,,,0.00,weatherlink.com 1.10,2013-06-05 03:01:00,
2013-06-04 23:16:00,47.3,44.0,30.10,NE,46,0.0,0.0,87,0.00,,,0.00,weatherlink.com 1.10,2013-06-05 03:16:00,
2013-06-04 23:31:00,46.7,43.0,30.11,NE,46,0.0,0.0,88,0.00,,,0.00,weatherlink.com 1.10,2013-06-05 03:31:00,
2013-06-04 23:46:00,46.2,43.0,30.11,NE,46,0.0,0.0,89,0.00,,,0.00,weatherlink.com 1.10,2013-06-05 03:46:00,